Time;durP1;ratioP1;P1;durP2;ratioP2;P2;SDS_P1;SDS_P2;PMS_P1;PMS_P2;Temp;Humidity;BMP_temperature;BMP_pressure;BME280_temperature;BME280_humidity;BME280_pressure;Samples;Min_cycle;Max_cycle;Signal;HPM_P1;HPM_P2
2021/09/08 06:02:24;;;;;;;2.50;1.02;;;15.00;99.90;;;;;;6334643;22;1423675;-90
2021/09/08 06:04:51;;;;;;;1.23;0.60;;;13.70;99.90;;;;;;6306605;22;20048;-89
2021/09/08 06:07:18;;;;;;;0.15;0.10;;;13.70;99.90;;;;;;6308528;22;20011;-89
2021/09/08 06:09:45;;;;;;;0.13;0.10;;;13.70;99.90;;;;;;6282102;22;20135;-89
2021/09/08 06:12:12;;;;;;;0.38;0.38;;;13.80;99.90;;;;;;6289177;22;20018;-89
2021/09/08 06:14:39;;;;;;;0.10;0.10;;;13.80;99.90;;;;;;6277619;22;20007;-90
2021/09/08 06:17:06;;;;;;;0.35;0.10;;;13.80;99.90;;;;;;6277127;22;20332;-88
2021/09/08 06:19:35;;;;;;;1.15;0.55;;;13.90;99.90;;;;;;6252025;22;20535;-87
2021/09/08 06:22:03;;;;;;;0.15;0.13;;;13.90;99.90;;;;;;6252171;22;20007;-87
2021/09/08 06:24:30;;;;;;;0.08;0.08;;;13.90;99.90;;;;;;6277139;22;20351;-88
2021/09/08 06:26:59;;;;;;;0.10;0.10;;;14.00;99.90;;;;;;6276993;22;20012;-88
2021/09/08 06:29:26;;;;;;;0.73;0.30;;;14.00;99.90;;;;;;6252811;22;20015;-87
2021/09/08 06:31:53;;;;;;;0.10;0.10;;;14.10;99.90;;;;;;6251111;22;20053;-87
2021/09/08 06:34:19;;;;;;;0.10;0.10;;;14.20;99.90;;;;;;6227085;22;20026;-87
2021/09/08 06:36:46;;;;;;;0.15;0.15;;;14.20;99.90;;;;;;6251255;22;20012;-88
2021/09/08 06:39:13;;;;;;;0.32;0.17;;;14.30;99.90;;;;;;6252868;22;20054;-88
2021/09/08 06:41:40;;;;;;;0.13;0.10;;;14.30;99.90;;;;;;6276965;22;20018;-87
2021/09/08 06:44:06;;;;;;;0.35;0.30;;;14.40;99.90;;;;;;6251264;22;20095;-87
2021/09/08 06:46:33;;;;;;;0.15;0.15;;;14.50;99.90;;;;;;6252556;22;20309;-88
2021/09/08 06:49:00;;;;;;;0.10;0.10;;;14.50;99.90;;;;;;6252214;22;20022;-86
2021/09/08 06:51:27;;;;;;;0.20;0.20;;;14.60;99.90;;;;;;6252995;22;20382;-88
2021/09/08 06:53:53;;;;;;;0.52;0.17;;;14.70;99.90;;;;;;6277031;22;20011;-90
2021/09/08 06:56:20;;;;;;;0.35;0.28;;;14.80;99.90;;;;;;6277323;22;20015;-90
2021/09/08 06:58:47;;;;;;;0.38;0.32;;;14.90;99.90;;;;;;6278053;22;20096;-95
2021/09/08 07:01:24;;;;;;;0.10;0.10;;;14.90;99.90;;;;;;6279436;22;20016;-96
2021/09/08 07:03:52;;;;;;;0.73;0.40;;;15.10;99.90;;;;;;6276719;22;20004;-96
2021/09/08 07:06:23;;;;;;;0.10;0.10;;;15.10;99.90;;;;;;6273680;22;20018;-93
2021/09/08 07:08:50;;;;;;;0.13;0.13;;;15.30;99.90;;;;;;6271277;22;20008;-91
2021/09/08 07:50:22;;;;;;;1.38;0.73;;;17.30;99.90;;;;;;6322227;22;20024;-88
2021/09/08 07:52:48;;;;;;;1.08;0.68;;;17.40;99.90;;;;;;6295464;22;20007;-88
2021/09/08 07:55:15;;;;;;;0.70;0.40;;;17.50;99.90;;;;;;6245308;22;20019;-87
2021/09/08 07:57:42;;;;;;;1.30;0.63;;;17.60;99.90;;;;;;6218937;22;20012;-88
2021/09/08 08:00:10;;;;;;;1.77;0.82;;;17.70;99.90;;;;;;6244451;22;20393;-85
2021/09/08 08:02:48;;;;;;;2.33;1.13;;;17.80;99.90;;;;;;6269139;22;20015;-86
2021/09/08 08:05:16;;;;;;;1.88;0.90;;;17.90;99.90;;;;;;6269542;22;20340;-88
2021/09/08 08:07:45;;;;;;;1.02;0.60;;;18.00;99.90;;;;;;6244135;22;20022;-87
2021/09/08 08:10:13;;;;;;;0.77;0.52;;;18.10;99.90;;;;;;6244373;22;20043;-88
2021/09/08 08:12:40;;;;;;;1.13;0.63;;;18.30;99.90;;;;;;6244193;22;20015;-86
2021/09/08 08:15:09;;;;;;;0.65;0.43;;;18.40;99.90;;;;;;6243684;22;20041;-89
2021/09/08 08:17:36;;;;;;;1.45;0.90;;;18.50;99.90;;;;;;6269612;22;20336;-89
2021/09/08 08:20:04;;;;;;;1.33;0.68;;;18.70;99.90;;;;;;6244288;22;20011;-87
2021/09/08 08:22:31;;;;;;;3.05;1.13;;;18.80;99.90;;;;;;6269236;22;20042;-87
2021/09/08 08:24:58;;;;;;;3.75;1.10;;;18.90;99.90;;;;;;6219652;22;20071;-86
2021/09/08 08:27:24;;;;;;;3.83;1.50;;;19.00;99.90;;;;;;6219251;22;20011;-86
2021/09/08 08:29:52;;;;;;;3.38;1.20;;;19.20;99.90;;;;;;6219239;22;20023;-88
2021/09/08 08:32:19;;;;;;;2.75;1.23;;;19.20;99.90;;;;;;6244086;22;20023;-89
2021/09/08 08:34:46;;;;;;;2.60;1.10;;;19.30;99.90;;;;;;6270122;22;20432;-90
2021/09/08 08:37:13;;;;;;;6.07;1.50;;;19.40;99.90;;;;;;6219277;22;20014;-89
2021/09/08 08:39:40;;;;;;;3.30;1.35;;;19.60;99.90;;;;;;6219830;22;20051;-89
2021/09/08 08:42:13;;;;;;;2.17;1.15;;;19.70;99.90;;;;;;6244631;22;20012;-90
2021/09/08 08:44:40;;;;;;;3.63;1.35;;;19.80;99.90;;;;;;6245476;22;20023;-89
2021/09/08 08:47:12;;;;;;;2.30;0.93;;;19.90;99.90;;;;;;6243810;22;20031;-90
2021/09/08 08:49:48;;;;;;;2.42;1.20;;;20.10;99.90;;;;;;6258014;22;20021;-89
2021/09/08 08:52:22;;;;;;;2.80;1.30;;;20.20;99.90;;;;;;6262786;23;20032;-91
2021/09/08 08:54:57;;;;;;;3.70;1.70;;;20.30;99.90;;;;;;6238077;23;20019;-92
2021/09/08 09:04:54;;;;;;;2.80;1.27;;;20.70;99.90;;;;;;6198248;23;20370;-90
2021/09/08 09:16:17;;;;;;;3.92;1.40;;;21.30;99.90;;;;;;6352907;22;20098;-88
2021/09/08 09:18:44;;;;;;;2.53;1.17;;;21.40;99.90;;;;;;6275593;22;20015;-89
2021/09/08 09:21:13;;;;;;;3.30;1.40;;;21.60;99.90;;;;;;6326627;22;20015;-89
2021/09/08 09:23:47;;;;;;;3.63;1.15;;;21.70;99.90;;;;;;6276291;22;20015;-89
2021/09/08 09:26:22;;;;;;;1.90;1.03;;;21.80;99.90;;;;;;6326720;22;20466;-88
2021/09/08 09:28:49;;;;;;;2.00;1.08;;;22.00;99.90;;;;;;6301209;22;20062;-88
2021/09/08 09:31:22;;;;;;;2.58;1.13;;;22.00;99.90;;;;;;6275454;22;20071;-88
2021/09/08 09:33:54;;;;;;;1.83;1.13;;;22.10;99.90;;;;;;6300708;22;20313;-87
2021/09/08 09:36:23;;;;;;;2.63;1.17;;;22.20;99.90;;;;;;6300719;22;20012;-90
2021/09/08 09:38:54;;;;;;;2.47;1.10;;;22.30;99.90;;;;;;6300901;22;20014;-93
2021/09/08 09:41:27;;;;;;;2.40;1.00;;;22.40;99.90;;;;;;6299013;22;20015;-88
2021/09/08 09:43:54;;;;;;;2.30;1.00;;;22.50;99.90;;;;;;6300600;22;20411;-88
2021/09/08 09:46:28;;;;;;;2.70;0.80;;;22.60;99.90;;;;;;6249821;22;20023;-89
2021/09/08 10:01:25;;;;;;;;;;;;;;;;;;;;;
2021/09/08 10:05:02;;;;;;;;;;;;;;;;;;;;;
2021/09/08 10:07:54;;;;;;;2.80;1.17;;;23.30;99.90;;;;;;6166993;23;20435;-89
2021/09/08 10:10:29;;;;;;;1.60;0.82;;;23.40;99.90;;;;;;6228029;22;20015;-89
2021/09/08 10:14:07;;;;;;;2.65;1.00;;;23.50;99.90;;;;;;6271226;22;20012;-91
2021/09/08 10:17:24;;;;;;;1.85;1.00;;;23.70;99.90;;;;;;6095040;23;20023;-89
2021/09/08 10:20:20;;;;;;;3.63;1.05;;;23.70;99.90;;;;;;6221689;23;20358;-90
2021/09/08 10:23:26;;;;;;;1.58;0.90;;;23.80;99.90;;;;;;6237325;23;20047;-90
2021/09/08 10:29:31;;;;;;;0.75;0.52;;;23.90;99.90;;;;;;6262811;23;19922;-89
2021/09/08 10:32:29;;;;;;;;;;;;;;;;;;;;;
2021/09/08 10:39:57;;;;;;;;;;;;;;;;;;;;;
2021/09/08 10:42:07;;;;;;;3.85;0.90;;;24.20;99.90;;;;;;6253104;23;19981;-87
2021/09/08 10:45:23;;;;;;;2.28;1.00;;;24.20;99.90;;;;;;6215032;23;20016;-88
2021/09/08 10:48:02;;;;;;;0.95;0.47;;;24.20;99.90;;;;;;6239332;23;20502;-87
2021/09/08 10:50:34;;;;;;;1.63;0.80;;;24.20;99.90;;;;;;6239608;23;20016;-87
2021/09/08 10:53:22;;;;;;;2.05;0.68;;;24.20;99.90;;;;;;6239730;23;20015;-90
2021/09/08 10:55:51;;;;;;;3.10;0.82;;;24.40;99.90;;;;;;6239539;23;20070;-88
2021/09/08 10:58:18;;;;;;;1.33;0.80;;;24.50;99.90;;;;;;6214355;23;20016;-87
2021/09/08 11:00:46;;;;;;;1.85;0.93;;;24.40;99.90;;;;;;6213338;23;20066;-88
2021/09/08 11:03:16;;;;;;;1.30;0.65;;;24.50;99.90;;;;;;6215170;23;20012;-87
2021/09/08 11:06:07;;;;;;;1.77;0.88;;;24.50;99.90;;;;;;6240386;23;20441;-89
2021/09/08 11:08:39;;;;;;;1.75;0.63;;;24.60;99.90;;;;;;6225512;23;20441;-88
2021/09/08 11:11:17;;;;;;;3.20;0.90;;;24.60;99.90;;;;;;6239769;23;20047;-89
2021/09/08 11:13:45;;;;;;;1.75;0.80;;;24.70;99.90;;;;;;6239961;23;20024;-89
2021/09/08 11:16:24;;;;;;;1.70;0.70;;;24.70;99.90;;;;;;6239445;23;20020;-89
2021/09/08 11:18:56;;;;;;;1.65;0.80;;;24.80;99.90;;;;;;6239419;23;20462;-88
2021/09/08 11:21:31;;;;;;;1.65;0.60;;;24.80;99.90;;;;;;6239322;23;20039;-89
2021/09/08 11:23:59;;;;;;;1.67;0.60;;;24.80;99.90;;;;;;6239651;23;20019;-89
2021/09/08 11:26:27;;;;;;;2.80;1.10;;;24.90;99.90;;;;;;6239601;23;20012;-88
2021/09/08 11:29:06;;;;;;;1.67;0.70;;;24.90;99.90;;;;;;6239715;23;20008;-90
2021/09/08 11:31:52;;;;;;;1.10;0.55;;;25.00;99.90;;;;;;6239697;23;20015;-90
2021/09/08 11:34:46;;;;;;;0.55;0.45;;;25.00;99.90;;;;;;6239234;23;20012;-93
2021/09/08 11:37:24;;;;;;;1.92;0.70;;;25.10;99.90;;;;;;6238753;23;20016;-90
2021/09/08 11:39:54;;;;;;;1.23;0.70;;;25.00;99.90;;;;;;6239003;23;20344;-87
2021/09/08 11:42:22;;;;;;;0.93;0.60;;;25.00;99.90;;;;;;6238320;23;20095;-87
2021/09/08 11:44:57;;;;;;;2.83;0.70;;;25.10;99.90;;;;;;6214256;23;20047;-87
2021/09/08 11:47:23;;;;;;;1.63;0.73;;;25.00;99.90;;;;;;6213591;23;20380;-87
2021/09/08 11:49:59;;;;;;;1.33;0.75;;;25.10;99.90;;;;;;6213491;23;20065;-87
2021/09/08 11:52:26;;;;;;;1.10;0.60;;;25.10;99.90;;;;;;6263371;23;20375;-87
2021/09/08 11:54:54;;;;;;;1.65;0.90;;;25.10;99.90;;;;;;6237936;23;20016;-87
2021/09/08 11:57:25;;;;;;;1.35;0.32;;;25.20;99.90;;;;;;6263086;23;20498;-89
2021/09/08 11:59:55;;;;;;;1.35;0.70;;;25.30;99.90;;;;;;6213343;23;20381;-85
2021/09/08 12:02:25;;;;;;;1.48;0.75;;;25.30;99.90;;;;;;6212878;23;20008;-87
2021/09/08 12:04:53;;;;;;;1.38;0.73;;;25.30;99.90;;;;;;6188402;23;20012;-87
2021/09/08 12:07:28;;;;;;;0.77;0.50;;;25.30;99.90;;;;;;6189094;23;20070;-87
2021/09/08 12:09:55;;;;;;;1.38;0.80;;;25.30;99.90;;;;;;6238236;23;20442;-89
2021/09/08 12:12:22;;;;;;;1.55;0.63;;;25.30;99.90;;;;;;6189482;23;20054;-88
2021/09/08 12:14:49;;;;;;;1.65;0.75;;;25.40;99.90;;;;;;6220538;22;20104;-89
2021/09/08 12:17:23;;;;;;;0.98;0.50;;;25.40;99.90;;;;;;6269218;22;20011;-89
2021/09/08 12:20:08;;;;;;;1.23;0.70;;;25.40;99.90;;;;;;6268908;22;20012;-88
2021/09/08 12:22:38;;;;;;;1.27;0.45;;;25.40;99.90;;;;;;6293931;22;20457;-88
2021/09/08 12:25:17;;;;;;;1.25;0.68;;;25.50;99.90;;;;;;6268745;22;20012;-89
2021/09/08 12:27:47;;;;;;;1.25;0.75;;;25.50;99.90;;;;;;6269167;22;20018;-86
2021/09/08 12:30:20;;;;;;;0.95;0.50;;;25.60;99.90;;;;;;6267775;22;20022;-87
2021/09/08 12:33:09;;;;;;;0.77;0.40;;;25.60;99.90;;;;;;6267569;22;20020;-88
2021/09/08 12:35:45;;;;;;;1.25;0.60;;;25.60;99.90;;;;;;6268425;22;20015;-89
2021/09/08 12:38:25;;;;;;;3.00;0.85;;;25.60;99.90;;;;;;6293794;22;20379;-87
2021/09/08 12:41:32;;;;;;;0.68;0.50;;;25.50;99.90;;;;;;6267852;22;20016;-89
2021/09/08 12:44:09;;;;;;;0.80;0.52;;;25.70;99.90;;;;;;6269539;22;20014;-91
2021/09/08 16:18:34;;;;;;;0.68;0.45;;;24.20;99.90;;;;;;6159939;23;2027296;-94
2021/09/08 16:21:01;;;;;;;0.60;0.40;;;24.10;99.90;;;;;;6128281;23;20017;-94
2021/09/08 16:23:28;;;;;;;1.27;0.50;;;24.00;99.90;;;;;;6151741;23;20022;-94
2021/09/08 16:25:58;;;;;;;0.70;0.50;;;24.00;99.90;;;;;;6152029;23;20014;-95
2021/09/08 16:28:26;;;;;;;0.93;0.47;;;24.00;99.90;;;;;;6128714;23;20049;-94
2021/09/08 16:30:54;;;;;;;1.25;0.65;;;23.90;99.90;;;;;;6152148;23;20013;-95
2021/09/08 16:33:21;;;;;;;1.23;0.57;;;23.80;99.90;;;;;;6152968;23;20014;-96
2021/09/08 16:35:48;;;;;;;0.65;0.40;;;23.70;99.90;;;;;;6151682;23;20014;-94
2021/09/08 16:38:15;;;;;;;1.48;0.50;;;23.70;99.90;;;;;;6151963;23;20084;-94
2021/09/08 16:40:45;;;;;;;1.70;0.65;;;23.70;99.90;;;;;;6128076;23;20025;-95
2021/09/08 16:43:11;;;;;;;0.95;0.47;;;23.60;99.90;;;;;;6151955;23;20061;-96
2021/09/08 16:45:41;;;;;;;0.77;0.43;;;23.60;99.90;;;;;;6151263;23;20024;-94
2021/09/08 16:48:09;;;;;;;0.65;0.43;;;23.50;99.90;;;;;;6145238;23;20078;-94
2021/09/08 16:50:36;;;;;;;0.65;0.45;;;23.50;99.90;;;;;;6144893;23;20014;-94
2021/09/08 16:53:05;;;;;;;1.13;0.55;;;23.40;99.90;;;;;;6144647;23;20088;-95
2021/09/08 16:55:33;;;;;;;0.40;0.35;;;23.30;99.90;;;;;;6145493;23;20018;-95
2021/09/08 16:58:00;;;;;;;0.43;0.30;;;23.30;99.90;;;;;;6146279;23;20020;-94
2021/09/08 17:00:27;;;;;;;0.70;0.45;;;23.30;99.90;;;;;;6145338;23;20061;-94
2021/09/08 17:02:54;;;;;;;0.22;0.22;;;23.20;99.90;;;;;;6146161;23;20046;-93
2021/09/08 17:05:21;;;;;;;1.02;0.43;;;23.10;99.90;;;;;;6145128;23;20014;-96
2021/09/08 17:07:47;;;;;;;2.00;0.50;;;23.00;99.90;;;;;;6145620;23;20050;-95
2021/09/08 17:10:14;;;;;;;0.40;0.30;;;22.90;99.90;;;;;;6120760;23;20125;-93
2021/09/08 17:12:42;;;;;;;0.52;0.40;;;23.00;99.90;;;;;;6144823;23;20057;-95
2021/09/08 17:15:10;;;;;;;2.78;0.65;;;22.80;99.90;;;;;;6144741;23;20018;-96
2021/09/08 17:17:37;;;;;;;0.82;0.40;;;22.70;99.90;;;;;;6145070;23;20022;-95
2021/09/08 17:20:06;;;;;;;1.88;0.70;;;22.60;99.90;;;;;;6144498;23;20334;-95
2021/09/08 17:22:33;;;;;;;1.95;0.80;;;22.50;99.90;;;;;;6145146;23;20014;-95
2021/09/08 17:25:01;;;;;;;1.05;0.52;;;22.40;99.90;;;;;;6144753;23;20018;-95
2021/09/08 17:27:30;;;;;;;0.70;0.30;;;22.40;99.90;;;;;;6145091;23;20024;-96
2021/09/08 17:29:57;;;;;;;1.08;0.50;;;22.30;99.90;;;;;;6145109;23;20442;-95
2021/09/08 17:32:23;;;;;;;1.02;0.57;;;22.30;99.90;;;;;;6144970;23;20014;-93
2021/09/08 17:34:50;;;;;;;1.13;0.25;;;22.20;99.90;;;;;;6096805;23;20014;-95
2021/09/08 17:37:19;;;;;;;0.93;0.50;;;22.10;99.90;;;;;;6145240;23;20014;-94
2021/09/08 17:39:47;;;;;;;0.50;0.30;;;22.00;99.90;;;;;;6145455;23;20010;-94
2021/09/08 17:42:16;;;;;;;0.98;0.63;;;21.90;99.90;;;;;;6145444;23;20092;-95
2021/09/08 17:44:44;;;;;;;0.82;0.43;;;21.90;99.90;;;;;;6145408;23;20104;-95
2021/09/08 17:47:12;;;;;;;1.08;0.50;;;21.80;99.90;;;;;;6145960;23;20022;-96
2021/09/08 17:49:41;;;;;;;1.50;0.77;;;21.70;99.90;;;;;;6121989;23;20451;-95
2021/09/08 17:52:08;;;;;;;0.75;0.40;;;21.60;99.90;;;;;;6122071;23;20056;-96
2021/09/08 17:54:35;;;;;;;1.75;0.63;;;21.50;99.90;;;;;;6121384;23;20338;-95
2021/09/08 17:57:02;;;;;;;0.98;0.50;;;21.40;99.90;;;;;;6145475;23;20014;-93
2021/09/08 17:59:29;;;;;;;0.82;0.50;;;21.30;99.90;;;;;;6144467;23;20014;-93
2021/09/08 18:01:56;;;;;;;0.98;0.47;;;21.20;99.90;;;;;;6121941;23;20068;-94
2021/09/08 18:04:24;;;;;;;0.88;0.40;;;21.10;99.90;;;;;;6143917;23;20108;-95
2021/09/08 18:06:51;;;;;;;0.70;0.40;;;21.00;99.90;;;;;;6144628;23;20014;-94
2021/09/08 18:09:18;;;;;;;1.77;0.70;;;20.90;99.90;;;;;;6145419;23;20449;-95
2021/09/08 18:11:45;;;;;;;0.63;0.35;;;20.80;99.90;;;;;;6144051;23;20088;-94
2021/09/08 18:14:12;;;;;;;1.73;0.90;;;20.70;99.90;;;;;;6142965;23;20021;-94
2021/09/08 18:16:39;;;;;;;1.15;0.70;;;20.70;99.90;;;;;;6120363;23;20018;-95
2021/09/08 18:19:06;;;;;;;1.35;0.68;;;20.60;99.90;;;;;;6143272;23;20498;-94
2021/09/08 18:21:34;;;;;;;1.92;0.80;;;20.50;99.90;;;;;;6144139;23;20049;-92
2021/09/08 18:24:01;;;;;;;0.73;0.60;;;20.40;99.90;;;;;;6096437;23;20014;-92
2021/09/08 18:26:29;;;;;;;1.23;0.57;;;20.40;99.90;;;;;;6119622;23;20018;-96
2021/09/08 18:28:56;;;;;;;1.33;0.60;;;20.30;99.90;;;;;;6121097;23;20021;-92
2021/09/08 18:31:23;;;;;;;3.28;0.80;;;20.30;99.90;;;;;;6146275;23;20018;-91
2021/09/08 18:33:50;;;;;;;0.75;0.43;;;20.20;99.90;;;;;;6144542;23;20021;-89
2021/09/08 18:36:17;;;;;;;0.65;0.40;;;20.10;99.90;;;;;;6121301;23;20093;-90
2021/09/08 18:38:44;;;;;;;1.95;0.68;;;20.00;99.90;;;;;;6144966;23;20014;-89
2021/09/08 18:41:11;;;;;;;0.65;0.50;;;20.00;99.90;;;;;;6095921;23;20045;-89
2021/09/08 18:43:37;;;;;;;1.00;0.45;;;19.90;99.90;;;;;;6119876;23;20343;-90
2021/09/08 18:46:04;;;;;;;1.90;1.00;;;19.80;99.90;;;;;;6119934;23;20010;-90
2021/09/08 18:48:31;;;;;;;1.70;0.70;;;19.70;99.90;;;;;;6143822;23;20018;-90
2021/09/08 18:50:58;;;;;;;0.95;0.60;;;19.70;99.90;;;;;;6143758;23;20014;-89
2021/09/08 18:53:25;;;;;;;1.40;0.52;;;19.70;99.90;;;;;;6143107;23;20058;-90
2021/09/08 18:55:51;;;;;;;0.57;0.47;;;19.60;99.90;;;;;;6144184;23;20073;-90
2021/09/08 18:58:18;;;;;;;1.75;0.70;;;19.50;99.90;;;;;;6120058;23;20441;-90
2021/09/08 19:00:45;;;;;;;0.95;0.60;;;19.40;99.90;;;;;;6119752;23;20021;-90
2021/09/08 19:03:13;;;;;;;1.77;0.73;;;19.40;99.90;;;;;;6143556;23;20014;-90
2021/09/08 19:05:40;;;;;;;1.38;0.68;;;19.30;99.90;;;;;;6143824;23;20118;-90
2021/09/08 19:08:06;;;;;;;0.93;0.55;;;19.20;99.90;;;;;;6119804;23;20045;-90
2021/09/08 19:10:33;;;;;;;2.00;0.95;;;19.10;99.90;;;;;;6095243;23;20050;-90
2021/09/08 19:13:00;;;;;;;0.70;0.52;;;19.00;99.90;;;;;;6143989;23;20020;-90
2021/09/08 19:15:27;;;;;;;1.85;1.05;;;19.00;99.90;;;;;;6143334;23;20022;-91
2021/09/08 19:17:53;;;;;;;2.22;0.88;;;18.90;99.90;;;;;;6143461;23;20498;-91
2021/09/08 19:20:20;;;;;;;2.33;0.80;;;18.80;99.90;;;;;;6119914;23;20049;-89
2021/09/08 19:22:47;;;;;;;1.90;0.95;;;18.80;99.90;;;;;;6144331;23;20121;-90
2021/09/08 19:25:14;;;;;;;1.70;0.98;;;18.70;99.90;;;;;;6118836;23;20014;-88
2021/09/08 19:27:43;;;;;;;1.08;0.63;;;18.70;99.90;;;;;;6119169;23;20040;-89
2021/09/08 19:30:11;;;;;;;0.70;0.60;;;18.60;99.90;;;;;;6119913;23;20014;-89
2021/09/08 19:32:40;;;;;;;1.73;0.68;;;18.60;99.90;;;;;;6143094;23;20021;-91
2021/09/08 19:35:08;;;;;;;0.75;0.52;;;18.50;99.90;;;;;;6142852;23;20455;-90
2021/09/08 19:37:35;;;;;;;1.48;0.77;;;18.40;99.90;;;;;;6096310;23;20050;-90
2021/09/08 19:40:03;;;;;;;0.80;0.38;;;18.40;99.90;;;;;;6142925;23;20037;-89
2021/09/08 19:42:30;;;;;;;1.33;0.70;;;18.30;99.90;;;;;;6142996;23;20427;-90
2021/09/08 19:44:56;;;;;;;1.02;0.60;;;18.30;99.90;;;;;;6142759;23;20062;-90
2021/09/08 19:47:23;;;;;;;2.30;0.98;;;18.20;99.90;;;;;;6143085;23;20018;-90
2021/09/08 19:49:50;;;;;;;2.78;1.38;;;18.10;99.90;;;;;;6143626;23;20438;-90
2021/09/08 19:52:17;;;;;;;2.08;1.17;;;18.10;99.90;;;;;;6143381;23;20018;-91
2021/09/08 19:54:43;;;;;;;2.22;0.95;;;18.00;99.90;;;;;;6144525;23;20022;-90
2021/09/08 19:57:10;;;;;;;4.05;1.35;;;17.90;99.90;;;;;;6144674;23;20064;-90
2021/09/08 19:59:37;;;;;;;1.50;0.88;;;17.90;99.90;;;;;;6097172;23;20029;-89
2021/09/08 20:02:04;;;;;;;3.80;0.80;;;17.90;99.90;;;;;;6145370;23;20021;-89
2021/09/08 20:04:31;;;;;;;0.75;0.60;;;17.80;99.90;;;;;;6119929;23;20053;-89
2021/09/08 20:06:57;;;;;;;2.10;0.90;;;17.80;99.90;;;;;;6144923;23;20014;-89
2021/09/08 20:09:24;;;;;;;1.48;0.70;;;17.70;99.90;;;;;;6120390;23;20124;-90
2021/09/08 20:11:53;;;;;;;0.98;0.65;;;17.70;99.90;;;;;;6121369;23;20010;-89
2021/09/08 20:14:20;;;;;;;1.30;0.80;;;17.60;99.90;;;;;;6145520;23;20017;-90
2021/09/08 20:16:47;;;;;;;2.15;1.02;;;17.60;99.90;;;;;;6145113;23;20045;-90
2021/09/08 20:19:13;;;;;;;2.13;0.80;;;17.50;99.90;;;;;;6121276;23;20018;-91
2021/09/08 20:21:40;;;;;;;1.27;0.70;;;17.50;99.90;;;;;;6121465;23;20018;-90
2021/09/08 20:24:07;;;;;;;2.22;1.00;;;17.50;99.90;;;;;;6121899;23;20014;-90
2021/09/08 20:26:34;;;;;;;4.53;0.75;;;17.50;99.90;;;;;;6121002;23;20022;-90
2021/09/08 20:29:01;;;;;;;1.83;0.85;;;17.50;99.90;;;;;;6145141;23;20014;-90
2021/09/08 20:31:27;;;;;;;1.88;0.88;;;17.50;99.90;;;;;;6145100;23;20529;-95
2021/09/08 20:33:54;;;;;;;3.08;0.77;;;17.50;99.90;;;;;;6098018;23;20442;-92
2021/09/08 20:36:21;;;;;;;1.77;0.80;;;17.40;99.90;;;;;;6144942;23;20447;-93
2021/09/08 20:38:48;;;;;;;0.50;0.50;;;17.30;99.90;;;;;;6145476;23;20014;-92
2021/09/08 20:41:16;;;;;;;2.30;0.82;;;17.30;99.90;;;;;;6121789;23;20080;-93
2021/09/08 20:43:43;;;;;;;1.85;0.68;;;17.30;99.90;;;;;;6145207;23;20440;-92
2021/09/08 20:46:10;;;;;;;1.63;0.77;;;17.20;99.90;;;;;;6145549;23;20022;-91
2021/09/08 20:48:37;;;;;;;1.85;1.00;;;17.20;99.90;;;;;;6144626;23;20346;-92
2021/09/08 20:51:04;;;;;;;1.50;1.00;;;17.20;99.90;;;;;;6145989;23;20029;-92
2021/09/08 20:53:31;;;;;;;0.43;0.40;;;17.10;99.90;;;;;;6144361;23;20049;-93
2021/09/08 20:56:00;;;;;;;1.77;0.80;;;17.00;99.90;;;;;;6145373;23;20374;-92
2021/09/08 20:58:27;;;;;;;1.17;0.63;;;17.10;99.90;;;;;;6145644;23;20021;-92
2021/09/08 21:00:55;;;;;;;1.20;0.60;;;17.00;99.90;;;;;;6097664;23;20010;-92
2021/09/08 21:03:22;;;;;;;1.52;0.93;;;17.00;99.90;;;;;;6145891;23;20016;-91
2021/09/08 21:05:49;;;;;;;1.67;1.05;;;16.90;99.90;;;;;;6145326;23;20097;-92
2021/09/08 21:08:16;;;;;;;1.02;0.45;;;16.90;99.90;;;;;;6144786;23;20442;-91
2021/09/08 21:10:43;;;;;;;0.57;0.45;;;16.90;99.90;;;;;;6144926;23;20018;-93
2021/09/08 21:13:11;;;;;;;3.92;1.08;;;16.90;99.90;;;;;;6145025;23;20072;-92
2021/09/08 21:15:39;;;;;;;0.85;0.52;;;16.80;99.90;;;;;;6145286;23;20025;-92
2021/09/08 21:18:06;;;;;;;1.75;0.70;;;16.80;99.90;;;;;;6144618;23;20509;-92
2021/09/08 21:20:33;;;;;;;0.73;0.57;;;16.80;99.90;;;;;;6144697;23;20025;-92
2021/09/08 21:23:01;;;;;;;1.52;0.60;;;16.70;99.90;;;;;;6145230;23;20052;-92
2021/09/08 21:25:28;;;;;;;0.90;0.50;;;16.70;99.90;;;;;;6147628;23;20053;-92
2021/09/08 21:27:55;;;;;;;0.47;0.40;;;16.70;99.90;;;;;;6147739;23;20029;-92
2021/09/08 21:30:22;;;;;;;0.80;0.45;;;16.60;99.90;;;;;;6099286;23;20018;-93
2021/09/08 21:32:49;;;;;;;2.92;0.70;;;16.60;99.90;;;;;;6146228;23;20025;-91
2021/09/08 21:35:16;;;;;;;1.55;0.70;;;16.60;99.90;;;;;;6146321;23;20014;-92
2021/09/08 21:37:44;;;;;;;0.60;0.50;;;16.50;99.90;;;;;;6122844;23;20010;-92
2021/09/08 21:40:14;;;;;;;1.10;0.52;;;16.50;99.90;;;;;;6147788;23;20017;-92
2021/09/08 21:42:41;;;;;;;2.10;0.63;;;16.50;99.90;;;;;;6123899;23;20136;-92
2021/09/08 21:45:09;;;;;;;0.95;0.43;;;16.50;99.90;;;;;;6147599;23;20018;-94
2021/09/08 21:47:38;;;;;;;1.42;0.55;;;16.50;99.90;;;;;;6123562;23;20018;-92
2021/09/08 21:50:07;;;;;;;0.60;0.35;;;16.40;99.90;;;;;;6147162;23;20018;-92
2021/09/08 21:52:34;;;;;;;1.95;0.68;;;16.40;99.90;;;;;;6147074;23;20072;-93
2021/09/08 21:55:02;;;;;;;0.57;0.30;;;16.40;99.90;;;;;;6146913;23;20018;-94
2021/09/08 21:57:29;;;;;;;0.88;0.57;;;16.40;99.90;;;;;;6146857;23;20014;-93
2021/09/08 21:59:56;;;;;;;0.98;0.63;;;16.30;99.90;;;;;;6146224;23;20010;-93
2021/09/08 22:02:22;;;;;;;1.52;0.55;;;16.30;99.90;;;;;;6147323;23;20045;-93
2021/09/08 22:04:49;;;;;;;0.70;0.50;;;16.30;99.90;;;;;;6146888;23;20097;-93
2021/09/08 22:07:16;;;;;;;2.47;0.50;;;16.20;99.90;;;;;;6146406;23;20478;-92
2021/09/08 22:09:43;;;;;;;0.68;0.47;;;16.20;99.90;;;;;;6146519;23;20025;-93
2021/09/08 22:12:10;;;;;;;0.60;0.35;;;16.20;99.90;;;;;;6146838;23;20001;-93
2021/09/08 22:14:37;;;;;;;0.68;0.40;;;16.20;99.90;;;;;;6122112;23;20018;-91
2021/09/08 22:17:04;;;;;;;1.50;0.60;;;16.10;99.90;;;;;;6146221;23;20466;-92
2021/09/08 22:19:30;;;;;;;0.52;0.30;;;16.10;99.90;;;;;;6145800;23;20025;-93
2021/09/08 22:21:57;;;;;;;0.82;0.40;;;16.00;99.90;;;;;;6146160;23;20060;-92
2021/09/08 22:24:24;;;;;;;0.55;0.47;;;16.00;99.90;;;;;;6147046;23;20064;-93
2021/09/08 22:26:51;;;;;;;2.15;0.90;;;15.90;99.90;;;;;;6146174;23;20025;-93
2021/09/08 22:29:17;;;;;;;0.55;0.35;;;15.90;99.90;;;;;;6146387;23;20022;-91
2021/09/08 22:31:44;;;;;;;0.20;0.17;;;15.90;99.90;;;;;;6146369;23;20018;-91
2021/09/08 22:34:11;;;;;;;0.95;0.45;;;15.80;99.90;;;;;;6146126;23;20088;-91
2021/09/08 22:36:38;;;;;;;0.45;0.30;;;15.80;99.90;;;;;;6122162;23;20025;-91
2021/09/08 22:39:05;;;;;;;1.38;0.60;;;15.60;99.90;;;;;;6146556;23;20014;-92
2021/09/08 22:41:31;;;;;;;0.98;0.55;;;15.70;99.90;;;;;;6146466;23;20052;-90
2021/09/08 22:43:58;;;;;;;0.60;0.20;;;15.70;99.90;;;;;;6146527;23;20014;-91
2021/09/08 22:46:25;;;;;;;1.08;0.70;;;15.70;99.90;;;;;;6146138;23;20077;-92
2021/09/08 22:48:52;;;;;;;0.57;0.30;;;15.70;99.90;;;;;;6122196;23;20045;-92
2021/09/08 22:51:18;;;;;;;1.00;0.50;;;15.70;99.90;;;;;;6146330;23;20017;-91
2021/09/08 22:53:45;;;;;;;0.75;0.50;;;15.70;99.90;;;;;;6121937;23;20025;-92
2021/09/08 22:56:12;;;;;;;0.93;0.38;;;15.60;99.90;;;;;;6145182;23;20014;-92
2021/09/08 22:58:39;;;;;;;0.52;0.38;;;15.60;99.90;;;;;;6145166;23;20014;-91
2021/09/08 23:01:05;;;;;;;0.75;0.40;;;15.60;99.90;;;;;;6144761;23;20073;-92
2021/09/08 23:03:32;;;;;;;0.28;0.20;;;15.60;99.90;;;;;;6146149;23;20049;-92
2021/09/08 23:05:59;;;;;;;0.60;0.32;;;15.60;99.90;;;;;;6145821;23;20018;-92
2021/09/08 23:08:26;;;;;;;1.60;0.50;;;16.00;99.90;;;;;;6146260;23;20069;-92
2021/09/08 23:10:53;;;;;;;0.63;0.25;;;15.50;99.90;;;;;;6145832;23;20014;-92
2021/09/08 23:13:20;;;;;;;0.30;0.22;;;15.60;99.90;;;;;;6146213;23;20018;-92
2021/09/08 23:15:46;;;;;;;2.03;0.55;;;15.50;99.90;;;;;;6121343;23;20014;-92
2021/09/08 23:18:13;;;;;;;1.02;0.50;;;15.50;99.90;;;;;;6145403;23;20118;-92
2021/09/08 23:20:40;;;;;;;0.35;0.32;;;15.40;99.90;;;;;;6146448;23;20018;-93
2021/09/08 23:23:07;;;;;;;0.50;0.30;;;15.40;99.90;;;;;;6145723;23;20021;-92
2021/09/08 23:25:34;;;;;;;0.63;0.38;;;15.40;99.90;;;;;;6122587;23;20022;-92
2021/09/08 23:28:00;;;;;;;1.65;0.73;;;15.40;99.90;;;;;;6146079;23;20046;-92
2021/09/08 23:30:27;;;;;;;0.38;0.35;;;15.40;99.90;;;;;;6122466;23;20022;-92
2021/09/08 23:32:54;;;;;;;0.25;0.20;;;15.50;99.90;;;;;;6146343;23;20048;-91
2021/09/08 23:35:21;;;;;;;0.75;0.35;;;15.50;99.90;;;;;;6145207;23;20034;-93
2021/09/08 23:37:47;;;;;;;1.33;0.55;;;15.50;99.90;;;;;;6120928;23;20390;-92
2021/09/08 23:40:14;;;;;;;0.20;0.20;;;15.50;99.90;;;;;;6145443;23;20442;-93
2021/09/08 23:42:41;;;;;;;0.70;0.43;;;15.50;99.90;;;;;;6121337;23;20462;-92
2021/09/08 23:45:09;;;;;;;0.50;0.22;;;15.50;99.90;;;;;;6121654;23;20018;-92
2021/09/08 23:47:35;;;;;;;0.40;0.30;;;15.60;99.90;;;;;;6146006;23;20057;-92
2021/09/08 23:50:03;;;;;;;1.08;0.30;;;15.60;99.90;;;;;;6145840;23;20446;-92
2021/09/08 23:52:29;;;;;;;0.55;0.30;;;15.60;99.90;;;;;;6146180;23;20014;-92